Time,TemperatureF,DewpointF,PressureIn,WindDirection,WindDirectionDegrees,WindSpeedMPH,WindSpeedGustMPH,Humidity,HourlyPrecipIn,Conditions,Clouds,dailyrainin,SoftwareType,DateUTC
2013-01-22 00:01:00,28.3,10.0,29.83,SSW,197,7.0,13.0,47,0.00,,,0.00,weatherlink.com 1.10,2013-01-22 05:01:00,
2013-01-22 00:16:00,28.1,11.0,29.83,SE,141,2.0,8.0,48,0.00,,,0.00,weatherlink.com 1.10,2013-01-22 05:16:00,
2013-01-22 00:31:00,27.5,10.0,29.83,SW,220,3.0,8.0,48,0.00,,,0.00,weatherlink.com 1.10,2013-01-22 05:31:00,
2013-01-22 00:46:00,27.2,9.0,29.82,East,90,1.0,11.0,46,0.00,,,0.00,weatherlink.com 1.10,2013-01-22 05:46:00,
2013-01-22 01:01:00,27.0,8.0,29.82,SSW,192,10.0,11.0,45,0.00,,,0.00,weatherlink.com 1.10,2013-01-22 06:01:00,
2013-01-22 01:16:00,26.9,10.0,29.82,South,174,2.0,9.0,50,0.00,,,0.00,weatherlink.com 1.10,2013-01-22 06:16:00,
2013-01-22 01:46:00,25.6,10.0,29.82,ESE,117,6.0,9.0,51,0.00,,,0.00,weatherlink.com 1.10,2013-01-22 06:46:00,
2013-01-22 02:02:00,25.7,8.0,29.82,SE,125,1.0,6.0,47,0.00,,,0.00,weatherlink.com 1.10,2013-01-22 07:02:00,
2013-01-22 02:17:00,25.6,8.0,29.82,South,182,4.0,13.0,47,0.00,,,0.00,weatherlink.com 1.10,2013-01-22 07:17:00,
2013-01-22 02:32:00,25.3,8.0,29.82,South,176,1.0,11.0,47,0.00,,,0.00,weatherlink.com 1.10,2013-01-22 07:32:00,
2013-01-22 02:47:00,24.5,9.0,29.82,East,99,3.0,7.0,52,0.00,,,0.00,weatherlink.com 1.10,2013-01-22 07:47:00,
2013-01-22 03:02:00,23.6,10.0,29.83,WNW,296,2.0,6.0,57,0.00,,,0.00,weatherlink.com 1.10,2013-01-22 08:02:00,
2013-01-22 03:17:00,22.5,9.0,29.82,ESE,106,8.0,8.0,57,0.00,,,0.00,weatherlink.com 1.10,2013-01-22 08:17:00,
2013-01-22 03:32:00,21.8,11.0,29.83,SW,234,0.0,4.0,62,0.00,,,0.00,weatherlink.com 1.10,2013-01-22 08:32:00,
2013-01-22 03:47:00,20.2,10.0,29.82,North,356,0.0,2.0,65,0.00,,,0.00,weatherlink.com 1.10,2013-01-22 08:47:00,
2013-01-22 04:02:00,20.4,10.0,29.83,East,99,3.0,4.0,63,0.00,,,0.00,weatherlink.com 1.10,2013-01-22 09:02:00,
2013-01-22 04:17:00,20.7,9.0,29.82,NNE,24,5.0,9.0,62,0.00,,,0.00,weatherlink.com 1.10,2013-01-22 09:17:00,
2013-01-22 04:32:00,22.1,8.0,29.82,NW,304,2.0,8.0,56,0.00,,,0.00,weatherlink.com 1.10,2013-01-22 09:32:00,
2013-01-22 04:47:00,22.6,6.0,29.83,South,180,3.0,7.0,50,0.00,,,0.00,weatherlink.com 1.10,2013-01-22 09:47:00,
2013-01-22 05:02:00,22.3,6.0,29.83,South,175,0.0,6.0,50,0.00,,,0.00,weatherlink.com 1.10,2013-01-22 10:02:00,
2013-01-22 05:17:00,21.5,6.0,29.83,SSW,196,5.0,8.0,51,0.00,,,0.00,weatherlink.com 1.10,2013-01-22 10:17:00,
2013-01-22 05:32:00,20.8,6.0,29.84,SSW,200,4.0,8.0,52,0.00,,,0.00,weatherlink.com 1.10,2013-01-22 10:32:00,
2013-01-22 05:47:00,20.5,5.0,29.84,SW,217,9.0,12.0,52,0.00,,,0.00,weatherlink.com 1.10,2013-01-22 10:47:00,
2013-01-22 06:02:00,20.2,5.0,29.85,South,189,4.0,8.0,51,0.00,,,0.00,weatherlink.com 1.10,2013-01-22 11:02:00,
2013-01-22 06:17:00,20.0,5.0,29.84,SSE,167,4.0,6.0,52,0.00,,,0.00,weatherlink.com 1.10,2013-01-22 11:17:00,
2013-01-22 06:32:00,20.1,5.0,29.86,East,82,0.0,8.0,52,0.00,,,0.00,weatherlink.com 1.10,2013-01-22 11:32:00,
2013-01-22 06:47:00,19.8,5.0,29.86,SW,221,0.0,6.0,53,0.00,,,0.00,weatherlink.com 1.10,2013-01-22 11:47:00,
2013-01-22 07:17:00,18.2,5.0,29.88,West,271,0.0,5.0,57,0.00,,,0.00,weatherlink.com 1.10,2013-01-22 12:17:00,
2013-01-22 07:32:00,18.6,5.0,29.88,SSE,165,2.0,6.0,56,0.00,,,0.00,weatherlink.com 1.10,2013-01-22 12:32:00,
2013-01-22 07:47:00,17.9,6.0,29.88,SW,227,0.0,3.0,61,0.00,,,0.00,weatherlink.com 1.10,2013-01-22 12:47:00,
2013-01-22 08:03:00,17.1,6.0,29.89,South,183,4.0,5.0,62,0.00,,,0.00,weatherlink.com 1.10,2013-01-22 13:03:00,
2013-01-22 08:32:00,18.0,5.0,29.89,South,178,1.0,8.0,58,0.00,,,0.00,weatherlink.com 1.10,2013-01-22 13:32:00,
2013-01-22 08:48:00,18.6,5.0,29.90,SSW,193,5.0,8.0,55,0.00,,,0.00,weatherlink.com 1.10,2013-01-22 13:48:00,
2013-01-22 09:03:00,19.5,4.0,29.90,West,276,3.0,7.0,52,0.00,,,0.00,weatherlink.com 1.10,2013-01-22 14:03:00,
2013-01-22 09:18:00,20.1,5.0,29.91,SW,223,0.0,4.0,53,0.00,,,0.00,weatherlink.com 1.10,2013-01-22 14:18:00,
2013-01-22 09:33:00,21.0,4.0,29.92,ENE,68,4.0,4.0,47,0.00,,,0.00,weatherlink.com 1.10,2013-01-22 14:33:00,
2013-01-22 09:48:00,21.6,3.0,29.92,SSE,150,2.0,8.0,44,0.00,,,0.00,weatherlink.com 1.10,2013-01-22 14:48:00,
2013-01-22 10:03:00,22.1,2.0,29.93,NNW,333,0.0,10.0,41,0.00,,,0.00,weatherlink.com 1.10,2013-01-22 15:03:00,
2013-01-22 10:18:00,23.6,1.0,29.93,South,185,2.0,7.0,37,0.00,,,0.00,weatherlink.com 1.10,2013-01-22 15:18:00,
2013-01-22 10:33:00,23.7,0.0,29.94,South,179,2.0,9.0,35,0.00,,,0.00,weatherlink.com 1.10,2013-01-22 15:33:00,
2013-01-22 10:48:00,23.2,4.0,29.95,ENE,76,3.0,6.0,43,0.00,,,0.00,weatherlink.com 1.10,2013-01-22 15:48:00,
2013-01-22 11:03:00,24.3,-4.0,29.95,South,173,4.0,9.0,29,0.00,,,0.00,weatherlink.com 1.10,2013-01-22 16:03:00,
2013-01-22 11:18:00,24.9,-4.0,29.95,East,84,3.0,8.0,28,0.00,,,0.00,weatherlink.com 1.10,2013-01-22 16:18:00,
2013-01-22 11:33:00,25.8,-6.0,29.96,SW,229,1.0,7.0,25,0.00,,,0.00,weatherlink.com 1.10,2013-01-22 16:33:00,
2013-01-22 11:48:00,26.3,-10.0,29.95,SSE,158,3.0,10.0,20,0.00,,,0.00,weatherlink.com 1.10,2013-01-22 16:48:00,
2013-01-22 12:03:00,26.1,-12.0,29.95,SSW,195,6.0,12.0,18,0.00,,,0.00,weatherlink.com 1.10,2013-01-22 17:03:00,
2013-01-22 12:18:00,27.5,-10.0,29.94,South,185,5.0,8.0,19,0.00,,,0.00,weatherlink.com 1.10,2013-01-22 17:18:00,
2013-01-22 12:33:00,28.3,-9.0,29.94,SSW,196,0.0,12.0,19,0.00,,,0.00,weatherlink.com 1.10,2013-01-22 17:33:00,
2013-01-22 12:49:00,28.1,-9.0,29.94,South,175,7.0,12.0,19,0.00,,,0.00,weatherlink.com 1.10,2013-01-22 17:49:00,
2013-01-22 13:04:00,29.2,-5.0,29.93,East,101,3.0,11.0,22,0.00,,,0.00,weatherlink.com 1.10,2013-01-22 18:04:00,
2013-01-22 13:19:00,29.1,-6.0,29.93,SSW,193,12.0,12.0,22,0.00,,,0.00,weatherlink.com 1.10,2013-01-22 18:19:00,
2013-01-22 13:34:00,29.0,-4.0,29.92,WSW,255,1.0,12.0,24,0.00,,,0.00,weatherlink.com 1.10,2013-01-22 18:34:00,
2013-01-22 13:49:00,30.1,-3.0,29.93,NNE,27,2.0,14.0,24,0.00,,,0.00,weatherlink.com 1.10,2013-01-22 18:49:00,
2013-01-22 14:19:00,31.5,3.0,29.92,NE,44,0.0,7.0,29,0.00,,,0.00,weatherlink.com 1.10,2013-01-22 19:19:00,
2013-01-22 14:34:00,30.8,3.0,29.91,NNE,14,0.0,8.0,31,0.00,,,0.00,weatherlink.com 1.10,2013-01-22 19:34:00,
2013-01-22 14:49:00,32.1,4.0,29.91,South,191,1.0,10.0,31,0.00,,,0.00,weatherlink.com 1.10,2013-01-22 19:49:00,
2013-01-22 15:04:00,31.4,3.0,29.91,SE,129,7.0,7.0,30,0.00,,,0.00,weatherlink.com 1.10,2013-01-22 20:04:00,
2013-01-22 15:19:00,31.1,6.0,29.91,SW,226,3.0,7.0,34,0.00,,,0.00,weatherlink.com 1.10,2013-01-22 20:19:00,
2013-01-22 15:34:00,32.1,4.0,29.92,SE,144,5.0,8.0,30,0.00,,,0.00,weatherlink.com 1.10,2013-01-22 20:34:00,
2013-01-22 15:49:00,33.1,7.0,29.92,South,169,5.0,9.0,34,0.00,,,0.00,weatherlink.com 1.10,2013-01-22 20:49:00,
2013-01-22 16:04:00,33.0,7.0,29.92,SSE,164,12.0,12.0,33,0.00,,,0.00,weatherlink.com 1.10,2013-01-22 21:04:00,
2013-01-22 16:19:00,31.5,7.0,29.92,SW,227,4.0,21.0,35,0.00,,,0.00,weatherlink.com 1.10,2013-01-22 21:19:00,
2013-01-22 16:35:00,30.6,6.0,29.93,SSW,192,5.0,11.0,36,0.00,,,0.00,weatherlink.com 1.10,2013-01-22 21:35:00,
2013-01-22 16:53:00,30.2,7.0,29.94,South,190,1.0,12.0,38,0.00,,,0.00,weatherlink.com 1.10,2013-01-22 21:53:00,
2013-01-22 17:05:00,30.0,7.0,29.94,East,98,0.0,24.0,38,0.00,,,0.00,weatherlink.com 1.10,2013-01-22 22:05:00,
2013-01-22 17:20:00,29.4,7.0,29.94,SSW,198,4.0,13.0,38,0.00,,,0.00,weatherlink.com 1.10,2013-01-22 22:20:00,
2013-01-22 17:35:00,28.9,7.0,29.95,WSW,243,4.0,16.0,39,0.00,,,0.00,weatherlink.com 1.10,2013-01-22 22:35:00,
2013-01-22 17:50:00,28.5,7.0,29.94,SSW,197,8.0,14.0,40,0.00,,,0.00,weatherlink.com 1.10,2013-01-22 22:50:00,
2013-01-22 18:05:00,28.4,8.0,29.93,South,177,2.0,8.0,42,0.00,,,0.00,weatherlink.com 1.10,2013-01-22 23:05:00,
2013-01-22 18:20:00,27.5,8.0,29.93,South,179,5.0,7.0,44,0.00,,,0.00,weatherlink.com 1.10,2013-01-22 23:20:00,
2013-01-22 18:35:00,26.9,8.0,29.94,SW,229,0.0,7.0,45,0.00,,,0.00,weatherlink.com 1.10,2013-01-22 23:35:00,
2013-01-22 19:05:00,26.5,9.0,29.95,SSE,149,0.0,9.0,47,0.00,,,0.00,weatherlink.com 1.10,2013-01-23 00:05:00,
2013-01-22 19:20:00,24.3,6.0,29.95,WSW,245,0.0,4.0,45,0.00,,,0.00,weatherlink.com 1.10,2013-01-23 00:20:00,
2013-01-22 19:35:00,22.0,4.0,29.95,West,260,0.0,3.0,47,0.00,,,0.00,weatherlink.com 1.10,2013-01-23 00:35:00,
2013-01-22 19:53:00,21.1,4.0,29.96,SW,229,0.0,5.0,48,0.00,,,0.00,weatherlink.com 1.10,2013-01-23 00:53:00,
2013-01-22 20:05:00,20.6,5.0,29.97,North,359,0.0,2.0,50,0.00,,,0.00,weatherlink.com 1.10,2013-01-23 01:05:00,
2013-01-22 20:20:00,20.0,5.0,29.97,South,186,0.0,1.0,52,0.00,,,0.00,weatherlink.com 1.10,2013-01-23 01:20:00,
2013-01-22 20:36:00,19.7,5.0,29.96,NNE,30,3.0,4.0,53,0.00,,,0.00,weatherlink.com 1.10,2013-01-23 01:36:00,
2013-01-22 20:51:00,19.6,4.0,29.97,WSW,256,1.0,3.0,52,0.00,,,0.00,weatherlink.com 1.10,2013-01-23 01:51:00,
2013-01-22 21:06:00,19.2,5.0,29.96,NNE,15,0.0,4.0,54,0.00,,,0.00,weatherlink.com 1.10,2013-01-23 02:06:00,
2013-01-22 21:21:00,19.4,6.0,29.97,NNE,25,2.0,5.0,55,0.00,,,0.00,weatherlink.com 1.10,2013-01-23 02:21:00,
2013-01-22 21:36:00,20.2,5.0,29.96,NW,322,3.0,4.0,53,0.00,,,0.00,weatherlink.com 1.10,2013-01-23 02:36:00,
2013-01-22 22:06:00,19.7,5.0,29.96,ENE,70,6.0,7.0,54,0.00,,,0.00,weatherlink.com 1.10,2013-01-23 03:06:00,
2013-01-22 22:21:00,20.8,8.0,29.96,SSW,200,3.0,4.0,58,0.00,,,0.00,weatherlink.com 1.10,2013-01-23 03:21:00,
2013-01-22 22:36:00,20.9,6.0,29.96,WSW,257,0.0,3.0,52,0.00,,,0.00,weatherlink.com 1.10,2013-01-23 03:36:00,
2013-01-22 22:51:00,19.9,4.0,29.96,East,82,1.0,3.0,50,0.00,,,0.00,weatherlink.com 1.10,2013-01-23 03:51:00,
2013-01-22 23:21:00,19.2,3.0,29.96,WSW,250,0.0,3.0,50,0.00,,,0.00,weatherlink.com 1.10,2013-01-23 04:21:00,
2013-01-22 23:36:00,19.0,3.0,29.96,South,188,0.0,3.0,50,0.00,,,0.00,weatherlink.com 1.10,2013-01-23 04:36:00,
2013-01-22 23:51:00,19.1,3.0,29.96,SW,231,0.0,3.0,49,0.00,,,0.00,weatherlink.com 1.10,2013-01-23 04:51:00,